Syracuse, New York
Current Conditions -  °F | °C
As of 11:54 PM on Monday 22 Dec 2014 (Local Time) from KSYR Reporting Station
Drizzle Drizzle  
Wind Chill: 27°   Ceiling: 2400
Heat Index: 34°   Visibility: 3mi
Dew Point: 33°   Wind: 9mph
Humidity: 96%   Direction: 70°ENE
Pressure: 30.13"   Gusts: NA
Location:  43.05°N, 76.15°W
Report Text: KSYR 230454Z 07008KT 3SM -DZ BR OVC024 01/01 A3013 RMK AO2 RAB0359E16DZB16 SLP204 P0002 T00110006 400441017
Loading
Personal Weather Stations






























Interactive Weather Map New forecast layout! Learn more

10-Day Weather Forecast

Advertisements
Track Severe Weather on mobile